sensor_id;sensor_type;location;lat;lon;timestamp;P1;durP1;ratioP1;P2;durP2;ratioP2
14169;SDS011;63889;50.596;8.690;2023-04-19T00:00:39;13.93;;;8.70;;
14169;SDS011;63889;50.596;8.690;2023-04-19T00:03:05;16.55;;;8.90;;
14169;SDS011;63889;50.596;8.690;2023-04-19T00:05:32;14.80;;;7.88;;
14169;SDS011;63889;50.596;8.690;2023-04-19T00:07:58;16.10;;;8.40;;
14169;SDS011;63889;50.596;8.690;2023-04-19T00:10:24;16.05;;;8.65;;
14169;SDS011;63889;50.596;8.690;2023-04-19T00:12:50;18.55;;;9.13;;
14169;SDS011;63889;50.596;8.690;2023-04-19T00:15:18;13.57;;;8.07;;
14169;SDS011;63889;50.596;8.690;2023-04-19T00:17:46;16.77;;;8.65;;
14169;SDS011;63889;50.596;8.690;2023-04-19T00:20:12;14.45;;;7.30;;
14169;SDS011;63889;50.596;8.690;2023-04-19T00:22:38;16.45;;;8.85;;
14169;SDS011;63889;50.596;8.690;2023-04-19T00:25:04;14.95;;;8.15;;
14169;SDS011;63889;50.596;8.690;2023-04-19T00:27:30;14.50;;;8.13;;
14169;SDS011;63889;50.596;8.690;2023-04-19T00:29:56;15.38;;;8.30;;
14169;SDS011;63889;50.596;8.690;2023-04-19T00:32:22;13.90;;;8.10;;
14169;SDS011;63889;50.596;8.690;2023-04-19T00:34:48;20.42;;;7.93;;
14169;SDS011;63889;50.596;8.690;2023-04-19T00:37:14;14.98;;;8.20;;
14169;SDS011;63889;50.596;8.690;2023-04-19T00:39:40;16.40;;;7.50;;
14169;SDS011;63889;50.596;8.690;2023-04-19T00:42:05;18.70;;;8.40;;
14169;SDS011;63889;50.596;8.690;2023-04-19T00:44:31;15.13;;;7.60;;
14169;SDS011;63889;50.596;8.690;2023-04-19T00:46:59;16.75;;;8.25;;
14169;SDS011;63889;50.596;8.690;2023-04-19T00:49:25;13.23;;;7.78;;
14169;SDS011;63889;50.596;8.690;2023-04-19T00:51:52;12.13;;;7.05;;
14169;SDS011;63889;50.596;8.690;2023-04-19T00:54:18;15.13;;;8.15;;
14169;SDS011;63889;50.596;8.690;2023-04-19T00:56:44;11.48;;;6.95;;
14169;SDS011;63889;50.596;8.690;2023-04-19T00:59:10;12.32;;;7.47;;
14169;SDS011;63889;50.596;8.690;2023-04-19T01:01:40;14.65;;;7.47;;
14169;SDS011;63889;50.596;8.690;2023-04-19T01:04:06;12.55;;;7.53;;
14169;SDS011;63889;50.596;8.690;2023-04-19T01:06:36;13.35;;;6.70;;
14169;SDS011;63889;50.596;8.690;2023-04-19T01:09:04;12.30;;;7.03;;
14169;SDS011;63889;50.596;8.690;2023-04-19T01:11:29;10.32;;;6.82;;
14169;SDS011;63889;50.596;8.690;2023-04-19T01:13:55;11.60;;;6.85;;
14169;SDS011;63889;50.596;8.690;2023-04-19T01:16:22;15.02;;;7.60;;
14169;SDS011;63889;50.596;8.690;2023-04-19T01:18:50;15.20;;;8.32;;
14169;SDS011;63889;50.596;8.690;2023-04-19T01:21:16;14.10;;;7.72;;
14169;SDS011;63889;50.596;8.690;2023-04-19T01:23:42;14.25;;;7.88;;
14169;SDS011;63889;50.596;8.690;2023-04-19T01:26:08;13.57;;;7.80;;
14169;SDS011;63889;50.596;8.690;2023-04-19T01:28:34;16.40;;;8.32;;
14169;SDS011;63889;50.596;8.690;2023-04-19T01:30:59;15.18;;;8.02;;
14169;SDS011;63889;50.596;8.690;2023-04-19T01:33:25;13.27;;;7.95;;
14169;SDS011;63889;50.596;8.690;2023-04-19T01:35:53;13.52;;;8.45;;
14169;SDS011;63889;50.596;8.690;2023-04-19T01:38:19;15.90;;;8.15;;
14169;SDS011;63889;50.596;8.690;2023-04-19T01:40:44;15.00;;;8.52;;
14169;SDS011;63889;50.596;8.690;2023-04-19T01:43:11;17.17;;;8.82;;
14169;SDS011;63889;50.596;8.690;2023-04-19T01:45:38;18.70;;;8.75;;
14169;SDS011;63889;50.596;8.690;2023-04-19T01:48:04;14.15;;;8.18;;
14169;SDS011;63889;50.596;8.690;2023-04-19T01:50:30;16.25;;;8.68;;
14169;SDS011;63889;50.596;8.690;2023-04-19T01:52:58;14.80;;;8.18;;
14169;SDS011;63889;50.596;8.690;2023-04-19T01:55:24;17.23;;;9.43;;
14169;SDS011;63889;50.596;8.690;2023-04-19T01:57:50;17.70;;;8.82;;
14169;SDS011;63889;50.596;8.690;2023-04-19T02:00:17;13.75;;;8.43;;
14169;SDS011;63889;50.596;8.690;2023-04-19T02:02:43;17.50;;;8.82;;
14169;SDS011;63889;50.596;8.690;2023-04-19T02:05:09;17.38;;;8.48;;
14169;SDS011;63889;50.596;8.690;2023-04-19T02:07:38;14.73;;;8.35;;
14169;SDS011;63889;50.596;8.690;2023-04-19T02:10:04;14.13;;;8.80;;
14169;SDS011;63889;50.596;8.690;2023-04-19T02:12:30;15.63;;;8.65;;
14169;SDS011;63889;50.596;8.690;2023-04-19T02:15:00;13.95;;;8.13;;
14169;SDS011;63889;50.596;8.690;2023-04-19T02:17:28;17.13;;;9.77;;
14169;SDS011;63889;50.596;8.690;2023-04-19T02:19:54;13.38;;;8.15;;
14169;SDS011;63889;50.596;8.690;2023-04-19T02:22:20;16.10;;;9.02;;
14169;SDS011;63889;50.596;8.690;2023-04-19T02:24:45;14.93;;;8.82;;
14169;SDS011;63889;50.596;8.690;2023-04-19T02:27:14;15.38;;;7.90;;
14169;SDS011;63889;50.596;8.690;2023-04-19T02:29:40;14.88;;;7.82;;
14169;SDS011;63889;50.596;8.690;2023-04-19T02:32:05;15.20;;;8.57;;
14169;SDS011;63889;50.596;8.690;2023-04-19T02:34:31;12.85;;;8.13;;
14169;SDS011;63889;50.596;8.690;2023-04-19T02:36:58;19.85;;;7.78;;
14169;SDS011;63889;50.596;8.690;2023-04-19T02:39:23;14.77;;;8.23;;
14169;SDS011;63889;50.596;8.690;2023-04-19T02:41:49;16.33;;;8.07;;
14169;SDS011;63889;50.596;8.690;2023-04-19T02:44:15;16.10;;;8.23;;
14169;SDS011;63889;50.596;8.690;2023-04-19T02:46:40;16.50;;;9.02;;
14169;SDS011;63889;50.596;8.690;2023-04-19T02:49:06;17.65;;;9.90;;
14169;SDS011;63889;50.596;8.690;2023-04-19T02:51:31;19.67;;;10.30;;
14169;SDS011;63889;50.596;8.690;2023-04-19T02:53:57;15.05;;;8.52;;
14169;SDS011;63889;50.596;8.690;2023-04-19T02:56:22;15.45;;;8.80;;
14169;SDS011;63889;50.596;8.690;2023-04-19T02:58:48;18.70;;;9.05;;
14169;SDS011;63889;50.596;8.690;2023-04-19T03:01:13;17.48;;;9.43;;
14169;SDS011;63889;50.596;8.690;2023-04-19T03:03:39;17.90;;;9.13;;
14169;SDS011;63889;50.596;8.690;2023-04-19T03:06:05;17.77;;;9.45;;
14169;SDS011;63889;50.596;8.690;2023-04-19T03:08:30;17.55;;;9.10;;
14169;SDS011;63889;50.596;8.690;2023-04-19T03:10:57;17.65;;;8.57;;
14169;SDS011;63889;50.596;8.690;2023-04-19T03:13:22;15.18;;;9.27;;
14169;SDS011;63889;50.596;8.690;2023-04-19T03:15:48;17.92;;;9.10;;
14169;SDS011;63889;50.596;8.690;2023-04-19T03:18:14;13.88;;;8.45;;
14169;SDS011;63889;50.596;8.690;2023-04-19T03:20:41;17.58;;;9.63;;
14169;SDS011;63889;50.596;8.690;2023-04-19T03:23:06;14.77;;;8.43;;
14169;SDS011;63889;50.596;8.690;2023-04-19T03:25:32;23.55;;;9.57;;
14169;SDS011;63889;50.596;8.690;2023-04-19T03:27:58;17.25;;;9.18;;
14169;SDS011;63889;50.596;8.690;2023-04-19T03:30:23;20.23;;;8.65;;
14169;SDS011;63889;50.596;8.690;2023-04-19T03:32:48;17.17;;;9.20;;
14169;SDS011;63889;50.596;8.690;2023-04-19T03:35:16;17.73;;;8.88;;
14169;SDS011;63889;50.596;8.690;2023-04-19T03:37:41;16.90;;;8.40;;
14169;SDS011;63889;50.596;8.690;2023-04-19T03:40:09;17.05;;;8.77;;
14169;SDS011;63889;50.596;8.690;2023-04-19T03:42:35;16.40;;;8.60;;
14169;SDS011;63889;50.596;8.690;2023-04-19T03:45:00;18.77;;;9.32;;
14169;SDS011;63889;50.596;8.690;2023-04-19T03:47:26;18.08;;;9.32;;
14169;SDS011;63889;50.596;8.690;2023-04-19T03:49:52;17.65;;;9.02;;
14169;SDS011;63889;50.596;8.690;2023-04-19T03:52:17;16.33;;;8.95;;
14169;SDS011;63889;50.596;8.690;2023-04-19T03:54:43;19.27;;;8.88;;
14169;SDS011;63889;50.596;8.690;2023-04-19T03:57:09;16.92;;;8.38;;
14169;SDS011;63889;50.596;8.690;2023-04-19T03:59:37;17.13;;;8.75;;
14169;SDS011;63889;50.596;8.690;2023-04-19T04:02:02;15.98;;;8.85;;
14169;SDS011;63889;50.596;8.690;2023-04-19T04:04:30;14.93;;;8.15;;
14169;SDS011;63889;50.596;8.690;2023-04-19T04:06:55;14.07;;;8.13;;
14169;SDS011;63889;50.596;8.690;2023-04-19T04:09:21;16.58;;;8.52;;
14169;SDS011;63889;50.596;8.690;2023-04-19T04:11:46;13.20;;;7.25;;
14169;SDS011;63889;50.596;8.690;2023-04-19T04:14:12;13.32;;;7.75;;
14169;SDS011;63889;50.596;8.690;2023-04-19T04:16:37;15.70;;;7.75;;
14169;SDS011;63889;50.596;8.690;2023-04-19T04:19:03;18.00;;;7.93;;
14169;SDS011;63889;50.596;8.690;2023-04-19T04:21:28;13.10;;;7.07;;
14169;SDS011;63889;50.596;8.690;2023-04-19T04:23:54;15.75;;;8.05;;
14169;SDS011;63889;50.596;8.690;2023-04-19T04:26:20;14.60;;;7.63;;
14169;SDS011;63889;50.596;8.690;2023-04-19T04:28:45;15.05;;;8.00;;
14169;SDS011;63889;50.596;8.690;2023-04-19T04:31:11;13.15;;;7.38;;
14169;SDS011;63889;50.596;8.690;2023-04-19T04:33:36;16.33;;;7.85;;
14169;SDS011;63889;50.596;8.690;2023-04-19T04:36:02;14.52;;;7.47;;
14169;SDS011;63889;50.596;8.690;2023-04-19T04:38:29;14.30;;;6.93;;
14169;SDS011;63889;50.596;8.690;2023-04-19T04:40:55;12.05;;;6.75;;
14169;SDS011;63889;50.596;8.690;2023-04-19T04:43:21;15.30;;;6.30;;
14169;SDS011;63889;50.596;8.690;2023-04-19T04:45:48;12.80;;;6.07;;
14169;SDS011;63889;50.596;8.690;2023-04-19T04:48:14;10.98;;;5.70;;
14169;SDS011;63889;50.596;8.690;2023-04-19T04:50:40;12.02;;;6.20;;
14169;SDS011;63889;50.596;8.690;2023-04-19T04:53:06;17.08;;;6.45;;
14169;SDS011;63889;50.596;8.690;2023-04-19T04:55:32;10.82;;;5.20;;
14169;SDS011;63889;50.596;8.690;2023-04-19T04:57:58;11.13;;;5.68;;
14169;SDS011;63889;50.596;8.690;2023-04-19T05:00:25;9.15;;;5.15;;
14169;SDS011;63889;50.596;8.690;2023-04-19T05:02:50;8.98;;;4.80;;
14169;SDS011;63889;50.596;8.690;2023-04-19T05:05:16;9.55;;;5.00;;
14169;SDS011;63889;50.596;8.690;2023-04-19T05:07:41;8.00;;;4.70;;
14169;SDS011;63889;50.596;8.690;2023-04-19T05:10:07;11.60;;;3.90;;
14169;SDS011;63889;50.596;8.690;2023-04-19T05:12:33;9.57;;;5.13;;
14169;SDS011;63889;50.596;8.690;2023-04-19T05:15:00;9.57;;;5.05;;
14169;SDS011;63889;50.596;8.690;2023-04-19T05:17:26;8.82;;;4.97;;
14169;SDS011;63889;50.596;8.690;2023-04-19T05:19:51;9.07;;;4.78;;
14169;SDS011;63889;50.596;8.690;2023-04-19T05:22:17;14.38;;;4.95;;
14169;SDS011;63889;50.596;8.690;2023-04-19T05:24:42;6.90;;;3.95;;
14169;SDS011;63889;50.596;8.690;2023-04-19T05:27:08;10.10;;;4.38;;
14169;SDS011;63889;50.596;8.690;2023-04-19T05:29:35;6.25;;;3.60;;
14169;SDS011;63889;50.596;8.690;2023-04-19T05:32:00;7.63;;;3.88;;
14169;SDS011;63889;50.596;8.690;2023-04-19T05:34:26;6.35;;;3.95;;
14169;SDS011;63889;50.596;8.690;2023-04-19T05:36:51;5.68;;;3.55;;
14169;SDS011;63889;50.596;8.690;2023-04-19T05:39:17;6.32;;;3.83;;
14169;SDS011;63889;50.596;8.690;2023-04-19T05:41:42;8.18;;;3.97;;
14169;SDS011;63889;50.596;8.690;2023-04-19T05:44:08;5.90;;;3.90;;
14169;SDS011;63889;50.596;8.690;2023-04-19T05:46:33;7.05;;;4.28;;
14169;SDS011;63889;50.596;8.690;2023-04-19T05:49:00;7.05;;;4.88;;
14169;SDS011;63889;50.596;8.690;2023-04-19T05:51:26;6.03;;;3.83;;
14169;SDS011;63889;50.596;8.690;2023-04-19T05:53:52;8.30;;;4.35;;
14169;SDS011;63889;50.596;8.690;2023-04-19T05:56:18;6.90;;;3.90;;
14169;SDS011;63889;50.596;8.690;2023-04-19T05:58:43;9.52;;;4.18;;
14169;SDS011;63889;50.596;8.690;2023-04-19T06:01:09;7.90;;;4.38;;
14169;SDS011;63889;50.596;8.690;2023-04-19T06:03:35;6.22;;;3.90;;
14169;SDS011;63889;50.596;8.690;2023-04-19T06:06:00;6.30;;;4.00;;
14169;SDS011;63889;50.596;8.690;2023-04-19T06:08:26;9.02;;;4.35;;
14169;SDS011;63889;50.596;8.690;2023-04-19T06:10:51;6.25;;;3.70;;
14169;SDS011;63889;50.596;8.690;2023-04-19T06:13:18;8.27;;;3.85;;
14169;SDS011;63889;50.596;8.690;2023-04-19T06:15:44;7.47;;;4.13;;
14169;SDS011;63889;50.596;8.690;2023-04-19T06:18:10;5.30;;;3.60;;
14169;SDS011;63889;50.596;8.690;2023-04-19T06:20:36;8.18;;;3.72;;
14169;SDS011;63889;50.596;8.690;2023-04-19T06:23:02;5.15;;;3.40;;
14169;SDS011;63889;50.596;8.690;2023-04-19T06:25:28;4.65;;;2.97;;
14169;SDS011;63889;50.596;8.690;2023-04-19T06:27:53;7.80;;;4.35;;
14169;SDS011;63889;50.596;8.690;2023-04-19T06:30:19;7.00;;;3.00;;
14169;SDS011;63889;50.596;8.690;2023-04-19T06:32:45;7.43;;;3.00;;
14169;SDS011;63889;50.596;8.690;2023-04-19T06:35:10;6.00;;;3.42;;
14169;SDS011;63889;50.596;8.690;2023-04-19T06:37:36;4.72;;;3.25;;
14169;SDS011;63889;50.596;8.690;2023-04-19T06:40:02;5.07;;;3.33;;
14169;SDS011;63889;50.596;8.690;2023-04-19T06:42:29;6.60;;;3.80;;
14169;SDS011;63889;50.596;8.690;2023-04-19T06:44:54;4.97;;;3.08;;
14169;SDS011;63889;50.596;8.690;2023-04-19T06:47:21;9.75;;;3.63;;
14169;SDS011;63889;50.596;8.690;2023-04-19T06:49:47;5.53;;;3.03;;
14169;SDS011;63889;50.596;8.690;2023-04-19T06:52:12;5.88;;;3.05;;
14169;SDS011;63889;50.596;8.690;2023-04-19T06:54:38;6.97;;;3.40;;
14169;SDS011;63889;50.596;8.690;2023-04-19T06:57:03;6.60;;;3.53;;
14169;SDS011;63889;50.596;8.690;2023-04-19T06:59:29;6.90;;;3.65;;
14169;SDS011;63889;50.596;8.690;2023-04-19T07:01:56;12.10;;;4.82;;
14169;SDS011;63889;50.596;8.690;2023-04-19T07:04:22;7.43;;;3.58;;
14169;SDS011;63889;50.596;8.690;2023-04-19T07:06:49;5.53;;;3.45;;
14169;SDS011;63889;50.596;8.690;2023-04-19T07:09:14;7.50;;;3.38;;
14169;SDS011;63889;50.596;8.690;2023-04-19T07:11:40;5.70;;;3.25;;
14169;SDS011;63889;50.596;8.690;2023-04-19T07:14:05;6.55;;;3.53;;
14169;SDS011;63889;50.596;8.690;2023-04-19T07:16:31;4.90;;;3.55;;
14169;SDS011;63889;50.596;8.690;2023-04-19T07:18:57;5.55;;;3.35;;
14169;SDS011;63889;50.596;8.690;2023-04-19T07:21:22;6.70;;;3.28;;
14169;SDS011;63889;50.596;8.690;2023-04-19T07:23:56;6.40;;;3.30;;
14169;SDS011;63889;50.596;8.690;2023-04-19T07:26:22;6.68;;;3.72;;
14169;SDS011;63889;50.596;8.690;2023-04-19T07:28:47;8.13;;;3.40;;
14169;SDS011;63889;50.596;8.690;2023-04-19T07:31:14;5.93;;;3.88;;
14169;SDS011;63889;50.596;8.690;2023-04-19T07:33:40;6.35;;;3.63;;
14169;SDS011;63889;50.596;8.690;2023-04-19T07:36:07;7.57;;;3.63;;
14169;SDS011;63889;50.596;8.690;2023-04-19T07:38:33;6.35;;;3.15;;
14169;SDS011;63889;50.596;8.690;2023-04-19T07:40:58;6.45;;;3.60;;
14169;SDS011;63889;50.596;8.690;2023-04-19T07:43:24;6.20;;;3.20;;
14169;SDS011;63889;50.596;8.690;2023-04-19T07:45:50;8.20;;;3.67;;
14169;SDS011;63889;50.596;8.690;2023-04-19T07:48:16;6.70;;;3.97;;
14169;SDS011;63889;50.596;8.690;2023-04-19T07:50:42;6.32;;;3.80;;
14169;SDS011;63889;50.596;8.690;2023-04-19T07:53:07;6.80;;;3.78;;
14169;SDS011;63889;50.596;8.690;2023-04-19T07:55:33;8.15;;;4.68;;
14169;SDS011;63889;50.596;8.690;2023-04-19T07:57:59;7.03;;;3.75;;
14169;SDS011;63889;50.596;8.690;2023-04-19T08:00:25;5.50;;;3.53;;
14169;SDS011;63889;50.596;8.690;2023-04-19T08:02:51;6.82;;;3.53;;
14169;SDS011;63889;50.596;8.690;2023-04-19T08:05:17;6.78;;;3.75;;
14169;SDS011;63889;50.596;8.690;2023-04-19T08:07:43;10.57;;;4.00;;
14169;SDS011;63889;50.596;8.690;2023-04-19T08:10:09;5.57;;;3.42;;
14169;SDS011;63889;50.596;8.690;2023-04-19T08:12:35;6.38;;;3.83;;
14169;SDS011;63889;50.596;8.690;2023-04-19T08:15:02;5.68;;;3.50;;
14169;SDS011;63889;50.596;8.690;2023-04-19T08:17:28;8.73;;;3.92;;
14169;SDS011;63889;50.596;8.690;2023-04-19T08:19:54;6.53;;;3.63;;
14169;SDS011;63889;50.596;8.690;2023-04-19T08:22:19;6.57;;;3.53;;
14169;SDS011;63889;50.596;8.690;2023-04-19T08:24:45;6.15;;;3.30;;
14169;SDS011;63889;50.596;8.690;2023-04-19T08:27:13;7.45;;;4.40;;
14169;SDS011;63889;50.596;8.690;2023-04-19T08:29:38;9.50;;;4.43;;
14169;SDS011;63889;50.596;8.690;2023-04-19T08:32:04;5.80;;;3.65;;
14169;SDS011;63889;50.596;8.690;2023-04-19T08:34:30;7.22;;;3.92;;
14169;SDS011;63889;50.596;8.690;2023-04-19T08:36:59;7.43;;;4.18;;
14169;SDS011;63889;50.596;8.690;2023-04-19T08:39:24;8.77;;;4.95;;
14169;SDS011;63889;50.596;8.690;2023-04-19T08:41:50;8.68;;;4.05;;
14169;SDS011;63889;50.596;8.690;2023-04-19T08:44:16;8.05;;;3.75;;
14169;SDS011;63889;50.596;8.690;2023-04-19T08:46:43;9.43;;;3.90;;
14169;SDS011;63889;50.596;8.690;2023-04-19T08:49:09;10.00;;;3.45;;
14169;SDS011;63889;50.596;8.690;2023-04-19T08:51:36;7.32;;;3.90;;
14169;SDS011;63889;50.596;8.690;2023-04-19T08:54:03;12.50;;;4.53;;
14169;SDS011;63889;50.596;8.690;2023-04-19T08:56:31;6.35;;;3.58;;
14169;SDS011;63889;50.596;8.690;2023-04-19T08:58:57;7.30;;;4.25;;
14169;SDS011;63889;50.596;8.690;2023-04-19T09:01:22;6.82;;;3.45;;
14169;SDS011;63889;50.596;8.690;2023-04-19T09:03:48;8.45;;;3.65;;
14169;SDS011;63889;50.596;8.690;2023-04-19T09:06:14;7.50;;;3.70;;
14169;SDS011;63889;50.596;8.690;2023-04-19T09:08:40;6.32;;;3.88;;
14169;SDS011;63889;50.596;8.690;2023-04-19T09:11:06;9.25;;;3.45;;
14169;SDS011;63889;50.596;8.690;2023-04-19T09:13:32;6.25;;;3.45;;
14169;SDS011;63889;50.596;8.690;2023-04-19T09:16:00;6.28;;;3.72;;
14169;SDS011;63889;50.596;8.690;2023-04-19T09:18:26;6.93;;;3.92;;
14169;SDS011;63889;50.596;8.690;2023-04-19T09:20:52;8.40;;;3.58;;
14169;SDS011;63889;50.596;8.690;2023-04-19T09:23:21;6.78;;;3.47;;
14169;SDS011;63889;50.596;8.690;2023-04-19T09:25:50;6.15;;;3.33;;
14169;SDS011;63889;50.596;8.690;2023-04-19T09:28:28;4.25;;;3.15;;
14169;SDS011;63889;50.596;8.690;2023-04-19T09:30:54;5.00;;;3.33;;
14169;SDS011;63889;50.596;8.690;2023-04-19T09:33:30;7.90;;;3.70;;
14169;SDS011;63889;50.596;8.690;2023-04-19T09:35:57;12.55;;;3.95;;
14169;SDS011;63889;50.596;8.690;2023-04-19T09:38:23;11.43;;;3.88;;
14169;SDS011;63889;50.596;8.690;2023-04-19T09:40:48;9.68;;;3.78;;
14169;SDS011;63889;50.596;8.690;2023-04-19T09:43:22;10.85;;;3.47;;
14169;SDS011;63889;50.596;8.690;2023-04-19T09:45:49;4.63;;;3.20;;
14169;SDS011;63889;50.596;8.690;2023-04-19T09:48:15;5.60;;;3.30;;
14169;SDS011;63889;50.596;8.690;2023-04-19T09:50:51;6.25;;;3.30;;
14169;SDS011;63889;50.596;8.690;2023-04-19T09:53:18;6.32;;;3.33;;
14169;SDS011;63889;50.596;8.690;2023-04-19T09:55:45;8.63;;;3.10;;
14169;SDS011;63889;50.596;8.690;2023-04-19T09:58:14;11.00;;;3.60;;
14169;SDS011;63889;50.596;8.690;2023-04-19T10:00:41;11.98;;;3.33;;
14169;SDS011;63889;50.596;8.690;2023-04-19T10:03:08;5.05;;;2.60;;
14169;SDS011;63889;50.596;8.690;2023-04-19T10:05:38;5.22;;;2.58;;
14169;SDS011;63889;50.596;8.690;2023-04-19T10:08:09;5.68;;;2.78;;
14169;SDS011;63889;50.596;8.690;2023-04-19T10:10:36;5.13;;;3.10;;
14169;SDS011;63889;50.596;8.690;2023-04-19T10:13:05;5.38;;;2.78;;
14169;SDS011;63889;50.596;8.690;2023-04-19T10:15:33;5.95;;;2.72;;
14169;SDS011;63889;50.596;8.690;2023-04-19T10:18:00;6.95;;;2.53;;
14169;SDS011;63889;50.596;8.690;2023-04-19T10:20:36;5.70;;;2.67;;
14169;SDS011;63889;50.596;8.690;2023-04-19T10:23:05;7.32;;;2.50;;
14169;SDS011;63889;50.596;8.690;2023-04-19T10:25:35;6.93;;;2.70;;
14169;SDS011;63889;50.596;8.690;2023-04-19T10:28:02;4.60;;;2.58;;
14169;SDS011;63889;50.596;8.690;2023-04-19T10:30:28;5.97;;;2.60;;
14169;SDS011;63889;50.596;8.690;2023-04-19T10:32:57;3.60;;;2.10;;
14169;SDS011;63889;50.596;8.690;2023-04-19T10:35:27;10.15;;;2.33;;
14169;SDS011;63889;50.596;8.690;2023-04-19T10:43:25;3.92;;;1.92;;
14169;SDS011;63889;50.596;8.690;2023-04-19T10:45:54;5.88;;;2.13;;
14169;SDS011;63889;50.596;8.690;2023-04-19T10:50:57;4.15;;;1.75;;
14169;SDS011;63889;50.596;8.690;2023-04-19T10:56:08;5.03;;;2.13;;
14169;SDS011;63889;50.596;8.690;2023-04-19T11:01:38;2.50;;;1.80;;
14169;SDS011;63889;50.596;8.690;2023-04-19T11:04:15;7.25;;;1.80;;
14169;SDS011;63889;50.596;8.690;2023-04-19T11:09:23;3.47;;;1.60;;
14169;SDS011;63889;50.596;8.690;2023-04-19T11:11:49;4.85;;;1.52;;
14169;SDS011;63889;50.596;8.690;2023-04-19T11:14:15;7.55;;;1.40;;
14169;SDS011;63889;50.596;8.690;2023-04-19T11:16:41;2.55;;;1.60;;
14169;SDS011;63889;50.596;8.690;2023-04-19T11:19:07;6.20;;;1.73;;
14169;SDS011;63889;50.596;8.690;2023-04-19T11:21:37;1.73;;;1.35;;
14169;SDS011;63889;50.596;8.690;2023-04-19T11:24:10;3.97;;;1.40;;
14169;SDS011;63889;50.596;8.690;2023-04-19T11:26:36;3.33;;;1.27;;
14169;SDS011;63889;50.596;8.690;2023-04-19T11:29:02;2.88;;;1.67;;
14169;SDS011;63889;50.596;8.690;2023-04-19T11:31:33;2.58;;;1.27;;
14169;SDS011;63889;50.596;8.690;2023-04-19T11:33:58;3.75;;;1.50;;
14169;SDS011;63889;50.596;8.690;2023-04-19T11:36:25;4.25;;;1.48;;
14169;SDS011;63889;50.596;8.690;2023-04-19T11:38:51;3.83;;;1.50;;
14169;SDS011;63889;50.596;8.690;2023-04-19T11:41:17;4.53;;;1.13;;
14169;SDS011;63889;50.596;8.690;2023-04-19T11:43:43;1.90;;;1.30;;
14169;SDS011;63889;50.596;8.690;2023-04-19T11:46:11;3.22;;;1.52;;
14169;SDS011;63889;50.596;8.690;2023-04-19T11:48:38;13.27;;;1.58;;
14169;SDS011;63889;50.596;8.690;2023-04-19T11:51:04;2.67;;;1.50;;
14169;SDS011;63889;50.596;8.690;2023-04-19T11:53:30;8.68;;;1.60;;
14169;SDS011;63889;50.596;8.690;2023-04-19T11:58:30;5.15;;;1.58;;
14169;SDS011;63889;50.596;8.690;2023-04-19T12:03:30;3.38;;;1.77;;
14169;SDS011;63889;50.596;8.690;2023-04-19T12:06:00;1.40;;;1.20;;
14169;SDS011;63889;50.596;8.690;2023-04-19T12:08:36;4.18;;;1.50;;
14169;SDS011;63889;50.596;8.690;2023-04-19T12:11:10;3.05;;;2.00;;
14169;SDS011;63889;50.596;8.690;2023-04-19T12:13:36;2.75;;;1.60;;
14169;SDS011;63889;50.596;8.690;2023-04-19T12:16:04;4.22;;;1.70;;
14169;SDS011;63889;50.596;8.690;2023-04-19T12:18:46;1.85;;;1.30;;
14169;SDS011;63889;50.596;8.690;2023-04-19T12:21:26;1.70;;;1.30;;
14169;SDS011;63889;50.596;8.690;2023-04-19T12:23:54;2.90;;;1.60;;
14169;SDS011;63889;50.596;8.690;2023-04-19T12:26:20;2.90;;;1.80;;
14169;SDS011;63889;50.596;8.690;2023-04-19T12:28:46;2.85;;;1.40;;
14169;SDS011;63889;50.596;8.690;2023-04-19T12:31:11;3.70;;;1.77;;
14169;SDS011;63889;50.596;8.690;2023-04-19T12:33:37;3.25;;;1.48;;
14169;SDS011;63889;50.596;8.690;2023-04-19T12:36:02;2.92;;;1.80;;
14169;SDS011;63889;50.596;8.690;2023-04-19T12:38:28;5.13;;;1.50;;
14169;SDS011;63889;50.596;8.690;2023-04-19T12:40:53;2.50;;;1.50;;
14169;SDS011;63889;50.596;8.690;2023-04-19T12:43:19;2.70;;;1.40;;
14169;SDS011;63889;50.596;8.690;2023-04-19T12:45:45;2.00;;;1.23;;
14169;SDS011;63889;50.596;8.690;2023-04-19T12:48:10;6.07;;;1.55;;
14169;SDS011;63889;50.596;8.690;2023-04-19T12:50:36;2.35;;;1.10;;
14169;SDS011;63889;50.596;8.690;2023-04-19T12:53:01;1.63;;;1.30;;
14169;SDS011;63889;50.596;8.690;2023-04-19T12:55:27;1.30;;;1.10;;
14169;SDS011;63889;50.596;8.690;2023-04-19T12:57:53;4.28;;;2.35;;
14169;SDS011;63889;50.596;8.690;2023-04-19T13:00:18;2.38;;;1.25;;
14169;SDS011;63889;50.596;8.690;2023-04-19T13:02:44;2.85;;;1.20;;
14169;SDS011;63889;50.596;8.690;2023-04-19T13:05:12;1.77;;;1.65;;
14169;SDS011;63889;50.596;8.690;2023-04-19T13:07:37;4.35;;;1.60;;
14169;SDS011;63889;50.596;8.690;2023-04-19T13:10:03;7.60;;;1.90;;
14169;SDS011;63889;50.596;8.690;2023-04-19T13:12:29;4.15;;;1.45;;
14169;SDS011;63889;50.596;8.690;2023-04-19T13:14:55;3.35;;;1.58;;
14169;SDS011;63889;50.596;8.690;2023-04-19T13:17:21;3.95;;;1.80;;
14169;SDS011;63889;50.596;8.690;2023-04-19T13:19:46;3.72;;;1.67;;
14169;SDS011;63889;50.596;8.690;2023-04-19T13:22:12;4.05;;;1.60;;
14169;SDS011;63889;50.596;8.690;2023-04-19T13:24:38;3.30;;;1.77;;
14169;SDS011;63889;50.596;8.690;2023-04-19T13:27:03;2.92;;;2.28;;
14169;SDS011;63889;50.596;8.690;2023-04-19T13:29:29;4.72;;;2.22;;
14169;SDS011;63889;50.596;8.690;2023-04-19T13:31:55;2.90;;;1.92;;
14169;SDS011;63889;50.596;8.690;2023-04-19T13:34:20;2.88;;;1.70;;
14169;SDS011;63889;50.596;8.690;2023-04-19T13:36:46;2.55;;;1.73;;
14169;SDS011;63889;50.596;8.690;2023-04-19T13:39:11;2.80;;;1.75;;
14169;SDS011;63889;50.596;8.690;2023-04-19T13:41:37;3.33;;;1.60;;
14169;SDS011;63889;50.596;8.690;2023-04-19T13:44:02;2.38;;;1.65;;
14169;SDS011;63889;50.596;8.690;2023-04-19T13:46:28;3.17;;;1.85;;
14169;SDS011;63889;50.596;8.690;2023-04-19T13:48:53;5.85;;;1.80;;
14169;SDS011;63889;50.596;8.690;2023-04-19T13:51:19;2.80;;;1.58;;
14169;SDS011;63889;50.596;8.690;2023-04-19T13:53:44;4.63;;;1.75;;
14169;SDS011;63889;50.596;8.690;2023-04-19T13:56:10;3.63;;;1.60;;
14169;SDS011;63889;50.596;8.690;2023-04-19T13:58:36;1.50;;;1.38;;
14169;SDS011;63889;50.596;8.690;2023-04-19T14:01:01;4.00;;;1.45;;
14169;SDS011;63889;50.596;8.690;2023-04-19T14:03:27;4.65;;;2.05;;
14169;SDS011;63889;50.596;8.690;2023-04-19T14:05:53;4.05;;;1.85;;
14169;SDS011;63889;50.596;8.690;2023-04-19T14:08:18;4.60;;;2.17;;
14169;SDS011;63889;50.596;8.690;2023-04-19T14:10:45;4.43;;;1.60;;
14169;SDS011;63889;50.596;8.690;2023-04-19T14:13:10;10.95;;;2.22;;
14169;SDS011;63889;50.596;8.690;2023-04-19T14:15:36;2.80;;;1.73;;
14169;SDS011;63889;50.596;8.690;2023-04-19T14:18:01;3.65;;;1.88;;
14169;SDS011;63889;50.596;8.690;2023-04-19T14:20:27;5.20;;;1.77;;
14169;SDS011;63889;50.596;8.690;2023-04-19T14:22:53;3.17;;;1.77;;
14169;SDS011;63889;50.596;8.690;2023-04-19T14:25:23;3.55;;;1.75;;
14169;SDS011;63889;50.596;8.690;2023-04-19T14:27:48;4.50;;;2.17;;
14169;SDS011;63889;50.596;8.690;2023-04-19T14:30:14;2.13;;;1.70;;
14169;SDS011;63889;50.596;8.690;2023-04-19T14:32:39;3.13;;;1.63;;
14169;SDS011;63889;50.596;8.690;2023-04-19T14:35:05;2.20;;;1.92;;
14169;SDS011;63889;50.596;8.690;2023-04-19T14:37:32;4.93;;;1.50;;
14169;SDS011;63889;50.596;8.690;2023-04-19T14:39:58;3.72;;;1.70;;
14169;SDS011;63889;50.596;8.690;2023-04-19T14:42:24;3.08;;;1.92;;
14169;SDS011;63889;50.596;8.690;2023-04-19T14:44:50;4.00;;;1.88;;
14169;SDS011;63889;50.596;8.690;2023-04-19T14:47:16;2.92;;;1.85;;
14169;SDS011;63889;50.596;8.690;2023-04-19T14:49:41;4.88;;;1.95;;
14169;SDS011;63889;50.596;8.690;2023-04-19T14:52:07;3.13;;;1.85;;
14169;SDS011;63889;50.596;8.690;2023-04-19T14:54:32;3.75;;;1.70;;
14169;SDS011;63889;50.596;8.690;2023-04-19T14:56:58;3.05;;;1.80;;
14169;SDS011;63889;50.596;8.690;2023-04-19T14:59:23;3.38;;;1.98;;